map of PEK home
PEK - Airport
Location
City:  Beijing, Beijing, China
Near (Alt.):Peking
Name:Capital Airport
ICAO:ZBAA
IATA:PEK

Details
Type:Airport (Aerodrome, Airfield)
Use:Public/Civil, International (customs port of entry)
Latitude:4004'N (40.073)
Longitude:11636'E (116.598)
Elevation:115 ft (35 m)
Variation:6.92W (WMM2015 magnetic declination)
-0.06 annual change
Runways:3
Longest:12467 × 197 ft (3800 × 60 m), paved

Time
Time Zone:UTC+8
Local Time:

Weather
METAR:ZBAA 260900Z 19004G09MPS 120V240 CAVOK 29/09 Q1006 NOSIG

Related Locations
Nearby:
Farthest:CPG: 12378 mi / 19920 km
Carmen de Patagones, B, AR

Find:

   beyond  
but within

Other Information
Maps:
NOTAMs:
Links:
Sources:

  
flag of China   

Airport Diagram

Airport diagram for PEK

Airport diagram PDF

Sectional Chart

Flight Planning
at skyvector.com

Satellite Image

Google Maps Satellite view

 

Copyright © 2004-2017 Karl L. Swartz. All rights reserved.
The Great Circle Mapper name and logo are trademarks of the Great Circle Mapper.
All other trademarks mentioned herein belong to their respective owners.
Please see credits for attibutions and further copyright information.

  Follow gcmap on Facebook Follow gcmap on Twitter Follow gcmap on Google+ GCmap on LinkedIn

hCard Microformat

Geo Microformat